createdAt,value
2017-12-25T00:00:48.798Z,15.40
2017-12-25T00:03:15.468Z,15.40
2017-12-25T00:05:44.278Z,15.10
2017-12-25T00:08:10.971Z,15.20
2017-12-25T00:10:37.618Z,15.10
2017-12-25T00:13:04.348Z,15.20
2017-12-25T00:15:31.185Z,15.30
2017-12-25T00:17:57.857Z,15.20
2017-12-25T00:20:24.509Z,15.20
2017-12-25T00:22:51.228Z,15.20
2017-12-25T00:25:17.887Z,15.30
2017-12-25T00:27:44.583Z,15.30
2017-12-25T00:30:11.253Z,15.20
2017-12-25T00:32:37.917Z,15.20
2017-12-25T00:35:04.629Z,15.20
2017-12-25T00:37:31.285Z,15.20
2017-12-25T00:39:57.953Z,15.30
2017-12-25T00:42:24.646Z,15.20
2017-12-25T00:44:51.326Z,15.30
2017-12-25T00:47:18.066Z,15.30
2017-12-25T00:49:44.736Z,15.30
2017-12-25T00:52:11.795Z,15.20
2017-12-25T00:54:38.917Z,15.30
2017-12-25T00:57:05.577Z,15.30
2017-12-25T00:59:32.222Z,15.40
2017-12-25T01:01:58.873Z,15.40
2017-12-25T01:04:25.554Z,15.40
2017-12-25T01:06:52.225Z,15.40
2017-12-25T01:09:20.346Z,15.30
2017-12-25T01:11:47.014Z,15.40
2017-12-25T01:14:13.682Z,15.40
2017-12-25T01:16:40.333Z,15.30
2017-12-25T01:19:06.970Z,15.30
2017-12-25T01:21:33.663Z,15.40
2017-12-25T01:24:00.327Z,15.30
2017-12-25T01:26:26.986Z,15.40
2017-12-25T01:28:53.617Z,15.30
2017-12-25T01:31:20.312Z,15.40
2017-12-25T01:33:46.973Z,15.40
2017-12-25T01:36:13.715Z,15.30
2017-12-25T01:38:40.775Z,15.30
2017-12-25T01:41:07.481Z,15.30
2017-12-25T01:43:34.131Z,15.40
2017-12-25T01:46:00.789Z,15.50
2017-12-25T01:48:27.441Z,15.30
2017-12-25T01:50:54.099Z,15.40
2017-12-25T01:53:20.755Z,15.40
2017-12-25T01:55:47.410Z,15.50
2017-12-25T01:58:14.477Z,15.40
2017-12-25T02:00:41.139Z,15.40
2017-12-25T02:03:07.815Z,15.40
2017-12-25T02:05:34.469Z,15.40
2017-12-25T02:08:01.157Z,15.40
2017-12-25T02:10:27.798Z,15.40
2017-12-25T02:12:54.509Z,15.30
2017-12-25T02:15:31.918Z,15.30
2017-12-25T02:17:58.578Z,15.30
2017-12-25T02:20:25.295Z,15.40
2017-12-25T02:22:51.934Z,15.30
2017-12-25T02:25:18.597Z,15.30
2017-12-25T02:27:45.243Z,15.40
2017-12-25T02:30:11.911Z,15.40
2017-12-25T02:32:38.557Z,15.40
2017-12-25T02:35:05.226Z,15.40
2017-12-25T02:37:31.891Z,15.30
2017-12-25T02:39:58.558Z,15.40
2017-12-25T02:42:25.217Z,15.30
2017-12-25T02:44:51.935Z,15.40
2017-12-25T02:47:18.599Z,15.30
2017-12-25T02:49:45.259Z,15.30
2017-12-25T02:52:11.935Z,15.40
2017-12-25T02:54:39.038Z,15.40
2017-12-25T02:57:05.739Z,15.40
2017-12-25T02:59:32.412Z,15.40
2017-12-25T03:01:59.089Z,15.30
2017-12-25T03:04:25.729Z,15.30
2017-12-25T03:06:52.774Z,15.40
2017-12-25T03:09:19.826Z,15.40
2017-12-25T03:11:46.910Z,15.40
2017-12-25T03:14:13.565Z,15.40
2017-12-25T03:16:40.241Z,15.40
2017-12-25T03:19:06.951Z,15.40
2017-12-25T03:21:33.618Z,15.40
2017-12-25T03:24:00.685Z,15.40
2017-12-25T03:26:27.732Z,15.40
2017-12-25T03:28:54.409Z,15.40
2017-12-25T03:31:21.047Z,15.30
2017-12-25T03:33:47.713Z,15.30
2017-12-25T03:36:14.366Z,15.50
2017-12-25T03:38:41.414Z,15.40
2017-12-25T03:41:08.076Z,15.40
2017-12-25T03:43:34.751Z,15.40
2017-12-25T03:46:01.394Z,15.40
2017-12-25T03:48:28.048Z,15.50
2017-12-25T03:50:54.714Z,15.50
2017-12-25T03:53:21.371Z,15.40
2017-12-25T03:55:48.059Z,15.50
2017-12-25T03:58:14.765Z,15.40
2017-12-25T04:00:41.475Z,15.40
2017-12-25T04:03:08.392Z,15.50
2017-12-25T04:05:35.091Z,15.50
2017-12-25T04:08:01.742Z,15.50
2017-12-25T04:10:28.406Z,15.50
2017-12-25T04:12:55.155Z,15.60
2017-12-25T04:15:21.851Z,15.50
2017-12-25T04:17:48.537Z,15.60
2017-12-25T04:20:15.583Z,15.60
2017-12-25T04:22:42.263Z,15.60
2017-12-25T04:25:08.933Z,15.60
2017-12-25T04:27:35.574Z,15.50
2017-12-25T04:30:02.270Z,15.50
2017-12-25T04:32:28.927Z,15.50
2017-12-25T04:34:55.569Z,15.50
2017-12-25T04:37:22.244Z,15.50
2017-12-25T04:39:49.290Z,15.50
2017-12-25T04:42:16.349Z,15.50
2017-12-25T04:44:44.409Z,15.60
2017-12-25T04:47:11.456Z,15.70
2017-12-25T04:49:38.537Z,15.70
2017-12-25T04:52:05.215Z,15.70
2017-12-25T04:54:31.853Z,15.70
2017-12-25T04:56:58.516Z,15.60
2017-12-25T04:59:25.170Z,15.60
2017-12-25T05:01:56.410Z,15.60
2017-12-25T05:04:23.108Z,15.60
2017-12-25T05:06:49.773Z,15.70
2017-12-25T05:09:16.412Z,15.60
2017-12-25T05:11:43.073Z,15.70
2017-12-25T05:14:09.718Z,15.70
2017-12-25T05:16:36.385Z,15.60
2017-12-25T05:19:03.060Z,15.70
2017-12-25T05:21:30.315Z,15.60
2017-12-25T05:23:56.960Z,15.60
2017-12-25T05:26:23.609Z,15.60
2017-12-25T05:28:50.408Z,15.70
2017-12-25T05:31:17.071Z,15.80
2017-12-25T05:33:43.747Z,15.70
2017-12-25T05:36:10.442Z,15.70
2017-12-25T05:38:37.098Z,15.70
2017-12-25T05:41:03.761Z,15.80
2017-12-25T05:43:30.805Z,15.80
2017-12-25T05:45:57.502Z,15.70
2017-12-25T05:48:24.202Z,15.70
2017-12-25T05:50:50.871Z,15.70
2017-12-25T05:53:17.938Z,15.70
2017-12-25T05:55:44.622Z,15.70
2017-12-25T05:58:14.453Z,15.70
2017-12-25T06:00:41.127Z,15.60
2017-12-25T06:03:07.776Z,15.70
2017-12-25T06:05:34.449Z,15.80
2017-12-25T06:08:02.055Z,15.70
2017-12-25T06:10:32.498Z,15.70
2017-12-25T06:12:59.142Z,15.60
2017-12-25T06:15:25.770Z,15.70
2017-12-25T06:18:02.027Z,15.70
2017-12-25T06:20:28.671Z,15.60
2017-12-25T06:22:55.359Z,15.80
2017-12-25T06:25:22.023Z,15.70
2017-12-25T06:27:48.684Z,15.70
2017-12-25T06:30:15.334Z,15.70
2017-12-25T06:32:42.109Z,15.70
2017-12-25T06:35:09.066Z,15.60
2017-12-25T06:37:36.172Z,15.60
2017-12-25T06:40:02.862Z,15.60
2017-12-25T06:42:29.567Z,15.60
2017-12-25T06:44:56.330Z,15.60
2017-12-25T06:47:23.436Z,15.70
2017-12-25T06:49:50.098Z,15.70
2017-12-25T06:52:16.730Z,15.60
2017-12-25T06:54:43.850Z,15.70
2017-12-25T06:57:10.488Z,15.70
2017-12-25T06:59:37.154Z,15.70
2017-12-25T07:02:03.807Z,15.70
2017-12-25T07:04:30.643Z,15.70
2017-12-25T07:06:57.290Z,15.80
2017-12-25T07:09:23.991Z,15.80
2017-12-25T07:11:50.630Z,15.80
2017-12-25T07:14:17.331Z,15.80
2017-12-25T07:16:43.993Z,15.80
2017-12-25T07:19:10.698Z,15.80
2017-12-25T07:21:37.334Z,15.90
2017-12-25T07:24:03.978Z,15.80
2017-12-25T07:26:30.823Z,15.70
2017-12-25T07:28:57.461Z,15.80
2017-12-25T07:31:24.115Z,15.80
2017-12-25T07:33:50.765Z,15.80
2017-12-25T07:36:17.452Z,15.80
2017-12-25T07:38:44.504Z,15.70
2017-12-25T07:41:11.209Z,15.80
2017-12-25T07:43:37.851Z,15.80
2017-12-25T07:46:04.519Z,15.80
2017-12-25T07:48:31.223Z,15.70
2017-12-25T07:50:57.895Z,15.80
2017-12-25T07:53:24.714Z,15.80
2017-12-25T07:55:51.385Z,15.80
2017-12-25T07:58:18.039Z,15.70
2017-12-25T08:03:23.821Z,15.70
2017-12-25T08:05:50.471Z,15.80
2017-12-25T08:08:17.143Z,15.80
2017-12-25T08:10:44.180Z,15.80
2017-12-25T08:13:10.858Z,15.80
2017-12-25T08:15:37.502Z,15.80
2017-12-25T08:18:04.187Z,15.80
2017-12-25T08:20:30.994Z,15.80
2017-12-25T08:22:57.658Z,15.80
2017-12-25T08:25:24.329Z,15.80
2017-12-25T08:27:50.982Z,15.80
2017-12-25T08:30:17.629Z,15.80
2017-12-25T08:32:44.306Z,15.70
2017-12-25T08:35:10.949Z,15.90
2017-12-25T08:37:37.601Z,15.90
2017-12-25T08:40:04.644Z,15.90
2017-12-25T08:42:31.297Z,15.90
2017-12-25T08:44:57.976Z,15.90
2017-12-25T08:47:24.681Z,16.00
2017-12-25T08:49:51.360Z,16.00
2017-12-25T08:52:18.010Z,15.90
2017-12-25T08:54:44.731Z,15.90
2017-12-25T08:57:11.442Z,15.80
2017-12-25T08:59:38.114Z,15.90
2017-12-25T09:02:04.766Z,15.90
2017-12-25T09:04:31.918Z,15.90
2017-12-25T09:06:58.583Z,16.00
2017-12-25T09:09:25.633Z,15.90
2017-12-25T09:11:52.662Z,16.00
2017-12-25T09:14:19.740Z,15.90
2017-12-25T09:16:46.377Z,16.00
2017-12-25T09:19:20.139Z,15.90
2017-12-25T09:21:46.777Z,15.80
2017-12-25T09:24:13.439Z,16.00
2017-12-25T09:26:40.130Z,15.90
2017-12-25T09:29:06.830Z,15.90
2017-12-25T09:31:33.541Z,15.90
2017-12-25T09:34:00.607Z,15.90
2017-12-25T09:36:27.275Z,15.90
2017-12-25T09:38:53.939Z,15.90
2017-12-25T09:41:20.616Z,15.90
2017-12-25T09:43:47.301Z,15.90
2017-12-25T09:46:13.966Z,15.90
2017-12-25T09:48:40.636Z,16.00
2017-12-25T09:51:07.310Z,16.00
2017-12-25T09:53:33.983Z,15.90
2017-12-25T09:56:00.642Z,15.90
2017-12-25T09:58:32.571Z,15.90
2017-12-25T10:00:59.227Z,16.00
2017-12-25T10:03:25.897Z,15.90
2017-12-25T10:05:52.588Z,15.90
2017-12-25T10:08:19.262Z,15.90
2017-12-25T10:10:50.604Z,16.00
2017-12-25T10:13:17.307Z,15.90
2017-12-25T10:15:43.992Z,16.00
2017-12-25T10:18:10.653Z,15.90
2017-12-25T10:20:37.289Z,15.90
2017-12-25T10:28:21.216Z,15.90
2017-12-25T10:30:48.328Z,15.90
2017-12-25T10:33:15.006Z,15.90
2017-12-25T10:35:42.051Z,16.00
2017-12-25T10:40:35.074Z,15.90
2017-12-25T10:43:03.557Z,15.90
2017-12-25T10:45:31.179Z,16.10
2017-12-25T10:47:57.828Z,16.10
2017-12-25T10:50:24.515Z,16.00
2017-12-25T10:52:55.294Z,16.10
2017-12-25T10:55:21.947Z,16.20
2017-12-25T10:57:48.639Z,16.10
2017-12-25T11:00:15.296Z,16.10
2017-12-25T11:02:41.943Z,16.00
2017-12-25T11:05:08.631Z,16.00
2017-12-25T11:07:35.507Z,16.00
2017-12-25T11:10:02.160Z,16.10
2017-12-25T11:12:28.823Z,16.00
2017-12-25T11:15:06.898Z,16.10
2017-12-25T11:17:33.571Z,16.10
2017-12-25T11:20:00.264Z,16.00
2017-12-25T11:22:26.915Z,16.00
2017-12-25T11:24:53.622Z,16.00
2017-12-25T11:27:20.294Z,16.00
2017-12-25T11:29:46.982Z,16.00
2017-12-25T11:32:13.644Z,16.00
2017-12-25T11:34:40.351Z,16.10
2017-12-25T11:37:07.061Z,16.10
2017-12-25T11:39:34.120Z,16.20
2017-12-25T11:42:00.823Z,16.20
2017-12-25T11:44:28.130Z,16.10
2017-12-25T11:46:54.794Z,16.00
2017-12-25T11:49:21.464Z,16.00
2017-12-25T11:51:48.100Z,16.00
2017-12-25T11:54:14.772Z,16.00
2017-12-25T11:56:41.435Z,16.00
2017-12-25T11:59:08.115Z,16.00
2017-12-25T12:01:34.756Z,16.00
2017-12-25T12:04:01.486Z,16.00
2017-12-25T12:06:28.123Z,16.10
2017-12-25T12:08:54.790Z,16.10
2017-12-25T12:11:21.498Z,16.10
2017-12-25T12:13:48.201Z,16.20
2017-12-25T12:16:14.867Z,16.20
2017-12-25T12:18:41.557Z,16.20
2017-12-25T12:21:08.252Z,16.30
2017-12-25T12:23:34.970Z,16.30
2017-12-25T12:26:01.640Z,16.30
2017-12-25T12:28:28.702Z,16.30
2017-12-25T12:30:55.354Z,16.30
2017-12-25T12:33:22.027Z,16.20
2017-12-25T12:35:48.690Z,16.20
2017-12-25T12:38:15.339Z,16.20
2017-12-25T12:40:42.397Z,16.20
2017-12-25T12:43:09.443Z,16.30
2017-12-25T12:45:36.102Z,16.30
2017-12-25T12:48:02.782Z,16.20
2017-12-25T12:50:29.450Z,16.30
2017-12-25T12:52:56.090Z,16.30
2017-12-25T12:55:23.148Z,16.10
2017-12-25T12:57:49.823Z,16.10
2017-12-25T13:00:16.495Z,16.20
2017-12-25T13:02:43.139Z,16.10
2017-12-25T13:05:09.885Z,16.20
2017-12-25T13:07:36.555Z,16.20
2017-12-25T13:10:03.264Z,16.20
2017-12-25T13:12:29.944Z,16.30
2017-12-25T13:14:56.611Z,16.20
2017-12-25T13:17:23.307Z,16.20
2017-12-25T13:19:49.984Z,16.20
2017-12-25T13:22:16.690Z,16.30
2017-12-25T13:24:43.391Z,16.40
2017-12-25T13:27:10.057Z,16.20
2017-12-25T13:29:36.726Z,16.20
2017-12-25T13:32:03.369Z,16.20
2017-12-25T13:34:30.154Z,16.30
2017-12-25T13:36:56.817Z,16.30
2017-12-25T13:39:23.451Z,16.30
2017-12-25T13:41:55.378Z,16.40
2017-12-25T13:44:22.072Z,16.40
2017-12-25T13:46:48.702Z,16.40
2017-12-25T13:49:15.341Z,16.40
2017-12-25T13:51:42.020Z,16.50
2017-12-25T13:54:08.671Z,16.50
2017-12-25T13:56:35.405Z,16.50
2017-12-25T13:59:02.061Z,16.60
2017-12-25T14:01:28.724Z,16.40
2017-12-25T14:03:55.382Z,16.50
2017-12-25T14:06:22.058Z,16.60
2017-12-25T14:08:48.700Z,16.70
2017-12-25T14:11:15.811Z,16.50
2017-12-25T14:13:42.509Z,16.50
2017-12-25T14:16:09.177Z,16.50
2017-12-25T14:18:35.834Z,16.60
2017-12-25T14:21:02.535Z,16.60
2017-12-25T14:23:29.180Z,16.50
2017-12-25T14:25:55.834Z,16.50
2017-12-25T14:28:22.491Z,16.40
2017-12-25T14:30:49.166Z,16.50
2017-12-25T14:33:15.821Z,16.60
2017-12-25T14:35:42.530Z,16.40
2017-12-25T14:38:09.622Z,16.60
2017-12-25T14:40:36.260Z,16.60
2017-12-25T14:43:02.943Z,16.60
2017-12-25T14:45:29.574Z,16.60
2017-12-25T14:47:56.250Z,16.50
2017-12-25T14:50:22.979Z,16.50
2017-12-25T14:52:49.634Z,16.60
2017-12-25T14:55:16.293Z,16.50
2017-12-25T14:57:43.412Z,16.40
2017-12-25T15:00:10.054Z,16.40
2017-12-25T15:02:36.723Z,16.50
2017-12-25T15:05:07.347Z,16.50
2017-12-25T15:07:34.028Z,16.50
2017-12-25T15:10:00.667Z,16.50
2017-12-25T15:12:27.336Z,16.50
2017-12-25T15:14:53.987Z,16.50
2017-12-25T15:17:20.657Z,16.60
2017-12-25T15:19:47.303Z,16.70
2017-12-25T15:22:13.958Z,16.60
2017-12-25T15:24:40.628Z,16.70
2017-12-25T15:27:07.322Z,16.60
2017-12-25T15:29:34.014Z,16.60
2017-12-25T15:32:00.664Z,16.70
2017-12-25T15:34:27.330Z,16.70
2017-12-25T15:36:53.973Z,16.70
2017-12-25T15:39:20.645Z,16.70
2017-12-25T15:41:47.326Z,16.70
2017-12-25T15:44:13.982Z,16.70
2017-12-25T15:46:40.638Z,16.70
2017-12-25T15:49:07.301Z,16.70
2017-12-25T15:51:33.948Z,16.60
2017-12-25T15:54:01.216Z,16.70
2017-12-25T15:56:31.481Z,16.70
2017-12-25T15:58:58.172Z,16.70
2017-12-25T16:01:24.832Z,16.80
2017-12-25T16:03:51.498Z,16.60
2017-12-25T16:06:18.183Z,16.60
2017-12-25T16:08:45.236Z,16.70
2017-12-25T16:11:12.316Z,16.60
2017-12-25T16:13:38.998Z,16.60
2017-12-25T16:16:06.074Z,16.50
2017-12-25T16:18:32.761Z,16.60
2017-12-25T16:20:59.459Z,16.70
2017-12-25T16:23:26.190Z,16.70
2017-12-25T16:25:52.991Z,16.60
2017-12-25T16:28:19.634Z,16.50
2017-12-25T16:30:46.295Z,16.70
2017-12-25T16:33:12.945Z,16.70
2017-12-25T16:35:39.612Z,16.70
2017-12-25T16:38:06.313Z,16.70
2017-12-25T16:40:32.989Z,16.80
2017-12-25T16:42:59.623Z,16.80
2017-12-25T16:45:26.333Z,16.80
2017-12-25T16:47:52.990Z,16.70
2017-12-25T16:50:19.693Z,16.60
2017-12-25T16:52:46.360Z,16.60
2017-12-25T16:55:13.006Z,16.70
2017-12-25T16:57:39.770Z,16.70
2017-12-25T17:00:06.802Z,16.70
2017-12-25T17:02:43.082Z,16.80
2017-12-25T17:05:10.112Z,16.80
2017-12-25T17:07:36.757Z,16.90
2017-12-25T17:10:07.427Z,16.80
2017-12-25T17:12:34.161Z,16.90
2017-12-25T17:15:00.821Z,17.00
2017-12-25T17:17:27.472Z,17.10
2017-12-25T17:19:54.202Z,17.10
2017-12-25T17:22:21.058Z,17.00
2017-12-25T17:24:47.722Z,17.10
2017-12-25T17:27:14.442Z,17.10
2017-12-25T17:29:41.564Z,17.10
2017-12-25T17:32:08.227Z,17.10
2017-12-25T17:34:37.510Z,17.10
2017-12-25T17:37:13.156Z,17.10
2017-12-25T17:39:39.815Z,17.10
2017-12-25T17:42:06.464Z,17.10
2017-12-25T17:44:33.271Z,17.10
2017-12-25T17:46:59.908Z,17.10
2017-12-25T17:49:26.577Z,17.10
2017-12-25T17:51:55.387Z,17.20
2017-12-25T17:54:22.351Z,17.20
2017-12-25T17:56:49.242Z,17.10
2017-12-25T17:59:16.391Z,17.10
2017-12-25T18:01:43.216Z,17.10
2017-12-25T18:04:19.064Z,17.10
2017-12-25T18:06:49.416Z,17.00
2017-12-25T18:09:16.091Z,17.00
2017-12-25T18:11:42.834Z,17.00
2017-12-25T18:14:09.498Z,17.20
2017-12-25T18:19:15.107Z,17.20
2017-12-25T18:21:41.962Z,17.30
2017-12-25T18:24:13.378Z,17.10
2017-12-25T18:26:40.576Z,17.10
2017-12-25T18:29:07.310Z,17.10
2017-12-25T18:31:33.985Z,17.10
2017-12-25T18:34:00.630Z,17.20
2017-12-25T18:36:27.697Z,17.30
2017-12-25T18:38:55.502Z,17.30
2017-12-25T18:41:22.218Z,17.40
2017-12-25T18:43:48.978Z,17.40
2017-12-25T18:46:15.643Z,17.50
2017-12-25T18:48:44.239Z,17.60
2017-12-25T18:51:11.052Z,17.50
2017-12-25T18:53:37.764Z,17.50
2017-12-25T18:56:04.577Z,17.50
2017-12-25T18:58:31.227Z,17.40
2017-12-25T19:03:36.655Z,17.40
2017-12-25T19:06:03.490Z,17.10
2017-12-25T19:08:30.377Z,16.90
2017-12-25T19:10:57.149Z,16.80
2017-12-25T19:13:23.823Z,16.70
2017-12-25T19:15:50.551Z,16.70
2017-12-25T19:18:19.453Z,16.60
2017-12-25T19:20:46.114Z,16.50
2017-12-25T19:23:12.786Z,16.50
2017-12-25T19:25:39.436Z,16.40
2017-12-25T19:28:06.214Z,16.40
2017-12-25T19:30:32.968Z,16.30
2017-12-25T19:32:59.688Z,16.30
2017-12-25T19:40:44.318Z,16.10
2017-12-25T19:43:11.521Z,16.10
2017-12-25T19:45:43.668Z,16.10
2017-12-25T19:48:10.455Z,16.00
2017-12-25T19:53:15.786Z,16.00
2017-12-25T19:58:31.379Z,15.90
2017-12-25T20:00:58.090Z,15.90
2017-12-25T20:03:24.786Z,15.80
2017-12-25T20:05:51.580Z,15.80
2017-12-25T20:08:18.329Z,15.80
2017-12-25T20:10:49.570Z,15.80
2017-12-25T20:15:55.949Z,15.60
2017-12-25T20:18:22.696Z,15.60
2017-12-25T20:20:49.627Z,15.60
2017-12-25T20:23:16.388Z,15.60
2017-12-25T20:25:43.479Z,15.60
2017-12-25T20:28:10.125Z,15.50
2017-12-25T20:30:36.774Z,15.50
2017-12-25T20:33:07.467Z,15.50
2017-12-25T20:35:34.141Z,15.50
2017-12-25T20:38:00.915Z,15.50
2017-12-25T20:40:27.674Z,15.40
2017-12-25T20:42:54.490Z,15.30
2017-12-25T20:45:21.334Z,15.40
2017-12-25T20:47:48.105Z,15.40
2017-12-25T20:50:14.805Z,15.30
2017-12-25T20:52:41.694Z,15.30
2017-12-25T20:55:08.449Z,15.30
2017-12-25T20:57:35.511Z,15.20
2017-12-25T21:00:02.205Z,15.20
2017-12-25T21:02:28.953Z,15.20
2017-12-25T21:04:55.667Z,15.20
2017-12-25T21:07:22.522Z,15.20
2017-12-25T21:09:49.281Z,15.20
2017-12-25T21:12:16.017Z,15.10
2017-12-25T21:14:42.803Z,15.10
2017-12-25T21:17:13.572Z,15.10
2017-12-25T21:22:19.716Z,15.10
2017-12-25T21:24:46.538Z,15.10
2017-12-25T21:27:25.255Z,15.00
2017-12-25T21:29:52.089Z,15.00
2017-12-25T21:32:31.483Z,14.90
2017-12-25T21:34:58.253Z,14.90
2017-12-25T21:37:25.366Z,14.90
2017-12-25T21:39:52.152Z,14.90
2017-12-25T21:47:36.293Z,14.80
2017-12-25T21:50:03.101Z,14.80
2017-12-25T21:52:31.658Z,14.80
2017-12-25T21:54:58.397Z,14.80
2017-12-25T21:57:31.965Z,14.70
2017-12-25T22:05:25.344Z,14.70
2017-12-25T22:10:30.580Z,14.60
2017-12-25T22:12:57.306Z,14.60
2017-12-25T22:28:38.742Z,14.50
2017-12-25T22:33:44.746Z,14.50
2017-12-25T22:39:01.137Z,14.40
2017-12-25T22:44:07.216Z,14.40
2017-12-25T22:46:33.962Z,14.40
2017-12-25T22:49:07.131Z,14.40
2017-12-25T22:57:01.198Z,14.30
2017-12-25T22:59:31.817Z,14.30
2017-12-25T23:01:58.668Z,14.30
2017-12-25T23:04:25.472Z,14.30
2017-12-25T23:06:52.312Z,14.30
2017-12-25T23:09:19.572Z,14.30
2017-12-25T23:11:49.671Z,14.20
2017-12-25T23:16:55.682Z,14.20
2017-12-25T23:19:22.474Z,14.20
2017-12-25T23:21:49.186Z,14.20
2017-12-25T23:24:15.975Z,14.20
2017-12-25T23:29:31.401Z,14.20
2017-12-25T23:32:07.208Z,14.10
2017-12-25T23:37:12.624Z,14.10
2017-12-25T23:39:39.346Z,14.10
2017-12-25T23:42:06.062Z,14.10
2017-12-25T23:52:31.794Z,14.10
2017-12-25T23:54:58.569Z,14.00
2017-12-25T23:57:25.338Z,14.00
2017-12-25T23:59:55.787Z,14.00
